Milltown, Indiana
Current Conditions -  °F | °C
As of 6:56 PM on Monday 20 Oct 2014 (Local Time) from KSDF Reporting Station
Few Clouds Few Clouds  
Wind Chill: 64°   Ceiling: Unl
Heat Index: 64°   Visibility: 10mi
Dew Point: 52°   Wind: 13mph
Humidity: 65%   Direction: 220°SW
Pressure: 29.9"   Gusts: NA
Location:  38.34°N, 86.28°W
Report Text: KSDF 202256Z 22011KT 10SM FEW045 18/11 A2990 RMK AO2 SLP123 T01780111
Loading
Personal Weather Stations






























Interactive Weather Map
Tropical Storm Tracking
New forecast layout! Learn more

10-Day Weather Forecast

Advertisements
Track Severe Weather on mobile